Terminal Aerodrome Forecast
Issued by NWS

Home | Current Version | Previous Version | Text Only | Print | Product List | Glossary On
Versions: 1 2 3 4 5 6 7 8 9 10 11 12 13 14 15 16
000
FTUS42 KTBW 200500
TAFPGD
TAF
KPGD 200534Z 2006/2106 08005KT P6SM FEW250
     FM201500 13005KT P6SM FEW250
     FM202000 21006KT P6SM SCT040 SCT250
     FM210000 VRB04KT P6SM SCT250=

USA.gov is the U.S. government's official web portal to all federal, state and local government web resources and services.